sensor_id;sensor_type;location;lat;lon;timestamp;temperature;humidity
38941;DHT22;43236;47.208;7.518;2023-08-12T00:00:57;23.20;99.90
38941;DHT22;43236;47.208;7.518;2023-08-12T00:03:45;23.00;99.90
38941;DHT22;43236;47.208;7.518;2023-08-12T00:06:32;23.00;99.90
38941;DHT22;43236;47.208;7.518;2023-08-12T00:09:19;23.40;99.90
38941;DHT22;43236;47.208;7.518;2023-08-12T00:12:06;23.00;99.90
38941;DHT22;43236;47.208;7.518;2023-08-12T00:14:53;23.00;99.90
38941;DHT22;43236;47.208;7.518;2023-08-12T00:17:40;23.00;99.90
38941;DHT22;43236;47.208;7.518;2023-08-12T00:20:28;23.00;99.90
38941;DHT22;43236;47.208;7.518;2023-08-12T00:23:15;24.00;99.90
38941;DHT22;43236;47.208;7.518;2023-08-12T00:26:02;23.00;99.90
38941;DHT22;43236;47.208;7.518;2023-08-12T00:28:49;22.90;99.90
38941;DHT22;43236;47.208;7.518;2023-08-12T00:31:37;22.60;99.90
38941;DHT22;43236;47.208;7.518;2023-08-12T00:34:23;23.90;99.90
38941;DHT22;43236;47.208;7.518;2023-08-12T00:37:12;22.70;99.90
38941;DHT22;43236;47.208;7.518;2023-08-12T00:39:58;22.90;99.90
38941;DHT22;43236;47.208;7.518;2023-08-12T00:42:45;22.90;99.90
38941;DHT22;43236;47.208;7.518;2023-08-12T00:45:33;22.70;99.90
38941;DHT22;43236;47.208;7.518;2023-08-12T00:48:20;22.90;99.90
38941;DHT22;43236;47.208;7.518;2023-08-12T00:51:08;22.90;99.90
38941;DHT22;43236;47.208;7.518;2023-08-12T00:53:57;23.20;99.90
38941;DHT22;43236;47.208;7.518;2023-08-12T00:56:44;23.90;99.90
38941;DHT22;43236;47.208;7.518;2023-08-12T00:59:31;22.90;99.90
38941;DHT22;43236;47.208;7.518;2023-08-12T01:02:19;21.90;99.90
38941;DHT22;43236;47.208;7.518;2023-08-12T01:05:06;23.10;99.90
38941;DHT22;43236;47.208;7.518;2023-08-12T01:07:53;22.90;99.90
38941;DHT22;43236;47.208;7.518;2023-08-12T01:10:45;22.80;99.90
38941;DHT22;43236;47.208;7.518;2023-08-12T01:13:34;23.10;99.90
38941;DHT22;43236;47.208;7.518;2023-08-12T01:16:29;22.90;99.90
38941;DHT22;43236;47.208;7.518;2023-08-12T01:19:20;22.90;99.90
38941;DHT22;43236;47.208;7.518;2023-08-12T01:22:10;23.10;99.90
38941;DHT22;43236;47.208;7.518;2023-08-12T01:24:58;23.00;99.90
38941;DHT22;43236;47.208;7.518;2023-08-12T01:27:45;23.80;99.90
38941;DHT22;43236;47.208;7.518;2023-08-12T01:30:32;23.00;99.90
38941;DHT22;43236;47.208;7.518;2023-08-12T01:33:21;23.00;99.90
38941;DHT22;43236;47.208;7.518;2023-08-12T01:36:12;23.00;99.90
38941;DHT22;43236;47.208;7.518;2023-08-12T01:41:51;22.70;99.90
38941;DHT22;43236;47.208;7.518;2023-08-12T01:44:39;23.00;99.90
38941;DHT22;43236;47.208;7.518;2023-08-12T01:47:26;22.80;99.90
38941;DHT22;43236;47.208;7.518;2023-08-12T01:50:13;22.70;99.90
38941;DHT22;43236;47.208;7.518;2023-08-12T01:53:01;23.10;99.90
38941;DHT22;43236;47.208;7.518;2023-08-12T01:55:49;22.90;99.90
38941;DHT22;43236;47.208;7.518;2023-08-12T01:58:37;23.00;99.90
38941;DHT22;43236;47.208;7.518;2023-08-12T02:01:24;23.00;99.90
38941;DHT22;43236;47.208;7.518;2023-08-12T02:04:11;21.20;99.90
38941;DHT22;43236;47.208;7.518;2023-08-12T02:06:58;23.10;99.90
38941;DHT22;43236;47.208;7.518;2023-08-12T02:09:45;22.70;99.90
38941;DHT22;43236;47.208;7.518;2023-08-12T02:12:32;22.80;99.90
38941;DHT22;43236;47.208;7.518;2023-08-12T02:15:20;22.60;99.90
38941;DHT22;43236;47.208;7.518;2023-08-12T02:18:07;21.90;99.90
38941;DHT22;43236;47.208;7.518;2023-08-12T02:20:54;22.60;99.90
38941;DHT22;43236;47.208;7.518;2023-08-12T02:23:40;22.60;99.90
38941;DHT22;43236;47.208;7.518;2023-08-12T02:26:29;22.90;99.90
38941;DHT22;43236;47.208;7.518;2023-08-12T02:32:05;22.70;99.90
38941;DHT22;43236;47.208;7.518;2023-08-12T02:34:52;22.40;99.90
38941;DHT22;43236;47.208;7.518;2023-08-12T02:37:39;22.50;99.90
38941;DHT22;43236;47.208;7.518;2023-08-12T02:40:26;22.70;99.90
38941;DHT22;43236;47.208;7.518;2023-08-12T02:43:13;22.50;99.90
38941;DHT22;43236;47.208;7.518;2023-08-12T02:46:00;22.00;99.90
38941;DHT22;43236;47.208;7.518;2023-08-12T02:48:48;22.40;99.90
38941;DHT22;43236;47.208;7.518;2023-08-12T02:51:35;23.10;99.90
38941;DHT22;43236;47.208;7.518;2023-08-12T02:54:21;22.70;99.90
38941;DHT22;43236;47.208;7.518;2023-08-12T02:57:08;22.50;99.90
38941;DHT22;43236;47.208;7.518;2023-08-12T02:59:55;22.60;99.90
38941;DHT22;43236;47.208;7.518;2023-08-12T03:02:42;22.40;99.90
38941;DHT22;43236;47.208;7.518;2023-08-12T03:05:31;22.80;99.90
38941;DHT22;43236;47.208;7.518;2023-08-12T03:08:18;22.80;99.90
38941;DHT22;43236;47.208;7.518;2023-08-12T03:11:05;22.80;99.90
38941;DHT22;43236;47.208;7.518;2023-08-12T03:13:52;22.50;99.90
38941;DHT22;43236;47.208;7.518;2023-08-12T03:16:40;22.80;99.90
38941;DHT22;43236;47.208;7.518;2023-08-12T03:19:27;22.50;99.90
38941;DHT22;43236;47.208;7.518;2023-08-12T03:22:15;21.60;99.90
38941;DHT22;43236;47.208;7.518;2023-08-12T03:25:02;23.20;99.90
38941;DHT22;43236;47.208;7.518;2023-08-12T03:27:49;22.30;99.90
38941;DHT22;43236;47.208;7.518;2023-08-12T03:30:36;22.50;99.90
38941;DHT22;43236;47.208;7.518;2023-08-12T03:33:23;22.80;99.90
38941;DHT22;43236;47.208;7.518;2023-08-12T03:36:10;22.60;99.90
38941;DHT22;43236;47.208;7.518;2023-08-12T03:38:58;22.20;99.90
38941;DHT22;43236;47.208;7.518;2023-08-12T03:41:45;22.20;99.90
38941;DHT22;43236;47.208;7.518;2023-08-12T03:44:32;22.10;99.90
38941;DHT22;43236;47.208;7.518;2023-08-12T03:47:18;21.70;99.90
38941;DHT22;43236;47.208;7.518;2023-08-12T03:50:09;22.20;99.90
38941;DHT22;43236;47.208;7.518;2023-08-12T03:52:56;22.60;99.90
38941;DHT22;43236;47.208;7.518;2023-08-12T03:55:44;22.40;99.90
38941;DHT22;43236;47.208;7.518;2023-08-12T03:58:31;22.50;99.90
38941;DHT22;43236;47.208;7.518;2023-08-12T04:01:18;22.10;99.90
38941;DHT22;43236;47.208;7.518;2023-08-12T04:04:05;22.10;99.90
38941;DHT22;43236;47.208;7.518;2023-08-12T04:06:52;22.30;99.90
38941;DHT22;43236;47.208;7.518;2023-08-12T04:09:39;21.20;99.90
38941;DHT22;43236;47.208;7.518;2023-08-12T04:12:27;21.20;99.90
38941;DHT22;43236;47.208;7.518;2023-08-12T04:15:14;22.10;99.90
38941;DHT22;43236;47.208;7.518;2023-08-12T04:18:01;22.50;99.90
38941;DHT22;43236;47.208;7.518;2023-08-12T04:20:48;22.30;99.90
38941;DHT22;43236;47.208;7.518;2023-08-12T04:23:35;22.40;99.90
38941;DHT22;43236;47.208;7.518;2023-08-12T04:26:22;23.40;99.90
38941;DHT22;43236;47.208;7.518;2023-08-12T04:29:10;22.30;99.90
38941;DHT22;43236;47.208;7.518;2023-08-12T04:31:57;23.20;99.90
38941;DHT22;43236;47.208;7.518;2023-08-12T04:34:45;22.10;99.90
38941;DHT22;43236;47.208;7.518;2023-08-12T04:37:32;21.90;99.90
38941;DHT22;43236;47.208;7.518;2023-08-12T04:40:19;21.90;99.90
38941;DHT22;43236;47.208;7.518;2023-08-12T04:43:06;21.90;99.90
38941;DHT22;43236;47.208;7.518;2023-08-12T04:45:55;22.10;99.90
38941;DHT22;43236;47.208;7.518;2023-08-12T04:48:42;21.90;99.90
38941;DHT22;43236;47.208;7.518;2023-08-12T04:51:29;22.30;99.90
38941;DHT22;43236;47.208;7.518;2023-08-12T04:54:16;22.20;99.90
38941;DHT22;43236;47.208;7.518;2023-08-12T04:57:03;22.20;99.90
38941;DHT22;43236;47.208;7.518;2023-08-12T04:59:51;22.40;99.90
38941;DHT22;43236;47.208;7.518;2023-08-12T05:02:39;22.20;99.90
38941;DHT22;43236;47.208;7.518;2023-08-12T05:05:26;22.30;99.90
38941;DHT22;43236;47.208;7.518;2023-08-12T05:08:13;22.00;99.90
38941;DHT22;43236;47.208;7.518;2023-08-12T05:11:00;22.40;99.90
38941;DHT22;43236;47.208;7.518;2023-08-12T05:13:46;22.00;99.90
38941;DHT22;43236;47.208;7.518;2023-08-12T05:16:33;22.30;99.90
38941;DHT22;43236;47.208;7.518;2023-08-12T05:19:22;22.20;99.90
38941;DHT22;43236;47.208;7.518;2023-08-12T05:22:09;22.50;99.90
38941;DHT22;43236;47.208;7.518;2023-08-12T05:24:58;22.10;99.90
38941;DHT22;43236;47.208;7.518;2023-08-12T05:27:45;22.60;99.90
38941;DHT22;43236;47.208;7.518;2023-08-12T05:30:32;22.60;99.90
38941;DHT22;43236;47.208;7.518;2023-08-12T05:33:18;22.30;99.90
38941;DHT22;43236;47.208;7.518;2023-08-12T05:36:07;22.80;99.90
38941;DHT22;43236;47.208;7.518;2023-08-12T05:38:54;22.50;99.90
38941;DHT22;43236;47.208;7.518;2023-08-12T05:41:41;22.30;99.90
38941;DHT22;43236;47.208;7.518;2023-08-12T05:44:28;22.20;99.90
38941;DHT22;43236;47.208;7.518;2023-08-12T05:47:15;23.50;99.90
38941;DHT22;43236;47.208;7.518;2023-08-12T05:50:02;22.60;99.90
38941;DHT22;43236;47.208;7.518;2023-08-12T05:52:50;22.40;99.90
38941;DHT22;43236;47.208;7.518;2023-08-12T05:55:37;21.30;99.90
38941;DHT22;43236;47.208;7.518;2023-08-12T05:58:24;22.50;99.90
38941;DHT22;43236;47.208;7.518;2023-08-12T06:01:11;22.50;99.90
38941;DHT22;43236;47.208;7.518;2023-08-12T06:03:58;22.50;99.90
38941;DHT22;43236;47.208;7.518;2023-08-12T06:06:45;22.30;99.90
38941;DHT22;43236;47.208;7.518;2023-08-12T06:09:33;22.40;99.90
38941;DHT22;43236;47.208;7.518;2023-08-12T06:12:20;22.30;99.90
38941;DHT22;43236;47.208;7.518;2023-08-12T06:15:07;22.60;99.90
38941;DHT22;43236;47.208;7.518;2023-08-12T06:17:54;22.60;99.90
38941;DHT22;43236;47.208;7.518;2023-08-12T06:20:41;23.10;99.90
38941;DHT22;43236;47.208;7.518;2023-08-12T06:23:28;22.10;99.90
38941;DHT22;43236;47.208;7.518;2023-08-12T06:26:16;21.60;99.90
38941;DHT22;43236;47.208;7.518;2023-08-12T06:29:03;22.90;99.90
38941;DHT22;43236;47.208;7.518;2023-08-12T06:31:51;23.10;99.90
38941;DHT22;43236;47.208;7.518;2023-08-12T06:34:38;23.20;99.90
38941;DHT22;43236;47.208;7.518;2023-08-12T06:37:25;23.10;99.90
38941;DHT22;43236;47.208;7.518;2023-08-12T06:40:12;24.20;99.90
38941;DHT22;43236;47.208;7.518;2023-08-12T06:43:00;23.40;99.90
38941;DHT22;43236;47.208;7.518;2023-08-12T06:45:47;22.10;99.90
38941;DHT22;43236;47.208;7.518;2023-08-12T06:48:34;23.60;99.90
38941;DHT22;43236;47.208;7.518;2023-08-12T06:51:21;23.30;99.90
38941;DHT22;43236;47.208;7.518;2023-08-12T06:54:08;23.40;99.90
38941;DHT22;43236;47.208;7.518;2023-08-12T06:56:55;23.30;99.90
38941;DHT22;43236;47.208;7.518;2023-08-12T06:59:43;24.10;99.90
38941;DHT22;43236;47.208;7.518;2023-08-12T07:02:30;21.80;99.90
38941;DHT22;43236;47.208;7.518;2023-08-12T07:05:17;22.20;99.90
38941;DHT22;43236;47.208;7.518;2023-08-12T07:08:04;21.90;99.90
38941;DHT22;43236;47.208;7.518;2023-08-12T07:10:51;23.20;99.90
38941;DHT22;43236;47.208;7.518;2023-08-12T07:13:38;23.50;99.90
38941;DHT22;43236;47.208;7.518;2023-08-12T07:16:26;23.70;99.90
38941;DHT22;43236;47.208;7.518;2023-08-12T07:19:13;23.60;99.90
38941;DHT22;43236;47.208;7.518;2023-08-12T07:22:00;22.20;99.90
38941;DHT22;43236;47.208;7.518;2023-08-12T07:24:47;24.10;99.90
38941;DHT22;43236;47.208;7.518;2023-08-12T07:27:34;23.60;99.90
38941;DHT22;43236;47.208;7.518;2023-08-12T07:30:21;24.70;99.90
38941;DHT22;43236;47.208;7.518;2023-08-12T07:33:09;24.20;99.90
38941;DHT22;43236;47.208;7.518;2023-08-12T07:35:56;25.40;99.90
38941;DHT22;43236;47.208;7.518;2023-08-12T07:38:42;24.60;99.90
38941;DHT22;43236;47.208;7.518;2023-08-12T07:41:29;23.40;99.90
38941;DHT22;43236;47.208;7.518;2023-08-12T07:44:16;24.50;99.90
38941;DHT22;43236;47.208;7.518;2023-08-12T07:47:03;25.30;99.90
38941;DHT22;43236;47.208;7.518;2023-08-12T07:49:52;24.50;99.90
38941;DHT22;43236;47.208;7.518;2023-08-12T07:52:38;24.40;99.90
38941;DHT22;43236;47.208;7.518;2023-08-12T07:55:26;24.30;99.90
38941;DHT22;43236;47.208;7.518;2023-08-12T07:58:13;24.80;99.90
38941;DHT22;43236;47.208;7.518;2023-08-12T08:01:00;25.80;99.90
38941;DHT22;43236;47.208;7.518;2023-08-12T08:03:47;24.20;99.90
38941;DHT22;43236;47.208;7.518;2023-08-12T08:06:35;24.50;99.90
38941;DHT22;43236;47.208;7.518;2023-08-12T08:09:22;24.20;99.90
38941;DHT22;43236;47.208;7.518;2023-08-12T08:12:09;24.00;99.90
38941;DHT22;43236;47.208;7.518;2023-08-12T08:14:57;24.80;99.90
38941;DHT22;43236;47.208;7.518;2023-08-12T08:17:43;24.30;99.90
38941;DHT22;43236;47.208;7.518;2023-08-12T08:20:30;22.90;99.90
38941;DHT22;43236;47.208;7.518;2023-08-12T08:23:18;23.80;99.90
38941;DHT22;43236;47.208;7.518;2023-08-12T08:26:05;24.80;99.90
38941;DHT22;43236;47.208;7.518;2023-08-12T08:28:52;23.70;99.90
38941;DHT22;43236;47.208;7.518;2023-08-12T08:31:39;24.20;99.90
38941;DHT22;43236;47.208;7.518;2023-08-12T08:34:26;25.20;99.90
38941;DHT22;43236;47.208;7.518;2023-08-12T08:37:13;25.10;99.90
38941;DHT22;43236;47.208;7.518;2023-08-12T08:40:01;24.50;99.90
38941;DHT22;43236;47.208;7.518;2023-08-12T08:42:50;25.20;99.90
38941;DHT22;43236;47.208;7.518;2023-08-12T08:45:38;24.30;99.90
38941;DHT22;43236;47.208;7.518;2023-08-12T08:48:25;24.20;99.90
38941;DHT22;43236;47.208;7.518;2023-08-12T08:51:12;23.80;99.90
38941;DHT22;43236;47.208;7.518;2023-08-12T08:53:59;26.20;99.90
38941;DHT22;43236;47.208;7.518;2023-08-12T08:56:49;24.10;99.90
38941;DHT22;43236;47.208;7.518;2023-08-12T08:59:36;24.80;99.90
38941;DHT22;43236;47.208;7.518;2023-08-12T09:02:23;24.20;99.90
38941;DHT22;43236;47.208;7.518;2023-08-12T09:05:10;24.50;99.90
38941;DHT22;43236;47.208;7.518;2023-08-12T09:07:58;24.30;99.90
38941;DHT22;43236;47.208;7.518;2023-08-12T09:10:45;26.00;99.90
38941;DHT22;43236;47.208;7.518;2023-08-12T09:13:33;26.00;99.90
38941;DHT22;43236;47.208;7.518;2023-08-12T09:16:20;23.60;99.90
38941;DHT22;43236;47.208;7.518;2023-08-12T09:19:07;24.70;99.90
38941;DHT22;43236;47.208;7.518;2023-08-12T09:21:55;25.70;99.90
38941;DHT22;43236;47.208;7.518;2023-08-12T09:24:43;25.50;99.90
38941;DHT22;43236;47.208;7.518;2023-08-12T09:27:30;26.00;99.90
38941;DHT22;43236;47.208;7.518;2023-08-12T09:30:18;24.20;99.90
38941;DHT22;43236;47.208;7.518;2023-08-12T09:33:07;25.50;99.90
38941;DHT22;43236;47.208;7.518;2023-08-12T09:35:56;24.60;99.90
38941;DHT22;43236;47.208;7.518;2023-08-12T09:38:43;24.20;99.90
38941;DHT22;43236;47.208;7.518;2023-08-12T09:41:30;24.00;99.90
38941;DHT22;43236;47.208;7.518;2023-08-12T09:44:17;24.60;99.90
38941;DHT22;43236;47.208;7.518;2023-08-12T09:47:06;24.80;99.90
38941;DHT22;43236;47.208;7.518;2023-08-12T09:49:54;25.00;99.90
38941;DHT22;43236;47.208;7.518;2023-08-12T09:52:41;24.40;99.90
38941;DHT22;43236;47.208;7.518;2023-08-12T09:55:28;24.50;99.90
38941;DHT22;43236;47.208;7.518;2023-08-12T09:58:16;23.60;99.90
38941;DHT22;43236;47.208;7.518;2023-08-12T10:01:04;25.20;99.90
38941;DHT22;43236;47.208;7.518;2023-08-12T10:03:52;24.30;99.90
38941;DHT22;43236;47.208;7.518;2023-08-12T10:06:40;24.30;99.90
38941;DHT22;43236;47.208;7.518;2023-08-12T10:09:27;24.00;99.90
38941;DHT22;43236;47.208;7.518;2023-08-12T10:12:13;24.40;99.90
38941;DHT22;43236;47.208;7.518;2023-08-12T10:15:01;23.70;99.90
38941;DHT22;43236;47.208;7.518;2023-08-12T10:17:48;25.40;99.90
38941;DHT22;43236;47.208;7.518;2023-08-12T10:20:39;25.20;99.90
38941;DHT22;43236;47.208;7.518;2023-08-12T10:23:26;25.50;99.90
38941;DHT22;43236;47.208;7.518;2023-08-12T10:26:15;25.80;99.90
38941;DHT22;43236;47.208;7.518;2023-08-12T10:29:03;25.90;99.90
38941;DHT22;43236;47.208;7.518;2023-08-12T10:31:50;25.10;99.90
38941;DHT22;43236;47.208;7.518;2023-08-12T10:34:37;26.40;99.90
38941;DHT22;43236;47.208;7.518;2023-08-12T10:37:26;27.00;99.90
38941;DHT22;43236;47.208;7.518;2023-08-12T10:40:19;25.80;99.90
38941;DHT22;43236;47.208;7.518;2023-08-12T10:43:06;24.60;99.90
38941;DHT22;43236;47.208;7.518;2023-08-12T10:45:53;26.90;99.90
38941;DHT22;43236;47.208;7.518;2023-08-12T10:48:40;26.90;99.90
38941;DHT22;43236;47.208;7.518;2023-08-12T10:51:46;26.70;99.90
38941;DHT22;43236;47.208;7.518;2023-08-12T10:54:34;25.70;99.90
38941;DHT22;43236;47.208;7.518;2023-08-12T10:57:34;24.80;99.90
38941;DHT22;43236;47.208;7.518;2023-08-12T11:00:24;24.80;99.90
38941;DHT22;43236;47.208;7.518;2023-08-12T11:03:11;26.20;99.90
38941;DHT22;43236;47.208;7.518;2023-08-12T11:05:58;26.70;99.90
38941;DHT22;43236;47.208;7.518;2023-08-12T11:08:46;25.70;99.90
38941;DHT22;43236;47.208;7.518;2023-08-12T11:11:34;27.00;99.90
38941;DHT22;43236;47.208;7.518;2023-08-12T11:14:21;25.30;99.40
38941;DHT22;43236;47.208;7.518;2023-08-12T11:17:11;25.20;99.30
38941;DHT22;43236;47.208;7.518;2023-08-12T11:20:00;25.00;98.30
38941;DHT22;43236;47.208;7.518;2023-08-12T11:22:47;25.70;98.70
38941;DHT22;43236;47.208;7.518;2023-08-12T11:25:34;25.10;99.00
38941;DHT22;43236;47.208;7.518;2023-08-12T11:28:23;24.30;97.40
38941;DHT22;43236;47.208;7.518;2023-08-12T11:31:10;25.90;99.90
38941;DHT22;43236;47.208;7.518;2023-08-12T11:33:57;26.70;99.10
38941;DHT22;43236;47.208;7.518;2023-08-12T11:36:44;27.50;99.50
38941;DHT22;43236;47.208;7.518;2023-08-12T11:39:31;26.80;99.90
38941;DHT22;43236;47.208;7.518;2023-08-12T11:42:18;26.40;99.00
38941;DHT22;43236;47.208;7.518;2023-08-12T11:45:07;25.70;99.60
38941;DHT22;43236;47.208;7.518;2023-08-12T11:47:54;25.80;99.80
38941;DHT22;43236;47.208;7.518;2023-08-12T11:50:41;25.70;99.90
38941;DHT22;43236;47.208;7.518;2023-08-12T11:53:28;25.90;99.30
38941;DHT22;43236;47.208;7.518;2023-08-12T11:56:15;26.00;98.90
38941;DHT22;43236;47.208;7.518;2023-08-12T11:59:02;25.90;99.50
38941;DHT22;43236;47.208;7.518;2023-08-12T12:01:52;26.10;99.40
38941;DHT22;43236;47.208;7.518;2023-08-12T12:04:41;26.40;99.90
38941;DHT22;43236;47.208;7.518;2023-08-12T12:07:28;26.40;98.40
38941;DHT22;43236;47.208;7.518;2023-08-12T12:10:18;27.40;99.00
38941;DHT22;43236;47.208;7.518;2023-08-12T12:13:05;26.30;97.50
38941;DHT22;43236;47.208;7.518;2023-08-12T12:15:53;26.40;96.30
38941;DHT22;43236;47.208;7.518;2023-08-12T12:18:42;26.50;96.50
38941;DHT22;43236;47.208;7.518;2023-08-12T12:21:37;26.70;98.00
38941;DHT22;43236;47.208;7.518;2023-08-12T12:24:28;26.80;97.30
38941;DHT22;43236;47.208;7.518;2023-08-12T12:27:15;26.80;96.40
38941;DHT22;43236;47.208;7.518;2023-08-12T12:32:50;26.80;97.40
38941;DHT22;43236;47.208;7.518;2023-08-12T12:35:38;27.20;96.70
38941;DHT22;43236;47.208;7.518;2023-08-12T12:38:25;27.10;96.30
38941;DHT22;43236;47.208;7.518;2023-08-12T12:41:12;27.30;96.10
38941;DHT22;43236;47.208;7.518;2023-08-12T12:44:00;27.20;96.60
38941;DHT22;43236;47.208;7.518;2023-08-12T12:46:47;27.30;97.00
38941;DHT22;43236;47.208;7.518;2023-08-12T12:49:34;27.60;96.60
38941;DHT22;43236;47.208;7.518;2023-08-12T12:52:22;27.40;96.90
38941;DHT22;43236;47.208;7.518;2023-08-12T12:55:09;27.70;95.70
38941;DHT22;43236;47.208;7.518;2023-08-12T12:57:56;27.70;95.30
38941;DHT22;43236;47.208;7.518;2023-08-12T13:00:43;27.80;94.90
38941;DHT22;43236;47.208;7.518;2023-08-12T13:03:30;27.70;95.50
38941;DHT22;43236;47.208;7.518;2023-08-12T13:06:17;27.70;94.50
38941;DHT22;43236;47.208;7.518;2023-08-12T13:09:05;27.70;94.40
38941;DHT22;43236;47.208;7.518;2023-08-12T13:11:52;27.70;94.50
38941;DHT22;43236;47.208;7.518;2023-08-12T13:14:42;27.90;94.20
38941;DHT22;43236;47.208;7.518;2023-08-12T13:17:29;27.50;94.00
38941;DHT22;43236;47.208;7.518;2023-08-12T13:20:15;27.80;94.40
38941;DHT22;43236;47.208;7.518;2023-08-12T13:23:02;28.10;94.70
38941;DHT22;43236;47.208;7.518;2023-08-12T13:25:52;28.20;95.10
38941;DHT22;43236;47.208;7.518;2023-08-12T13:28:39;28.20;93.70
38941;DHT22;43236;47.208;7.518;2023-08-12T13:31:26;27.90;94.20
38941;DHT22;43236;47.208;7.518;2023-08-12T13:34:13;30.10;95.00
38941;DHT22;43236;47.208;7.518;2023-08-12T13:37:00;28.40;93.90
38941;DHT22;43236;47.208;7.518;2023-08-12T13:39:47;28.00;94.00
38941;DHT22;43236;47.208;7.518;2023-08-12T13:42:35;28.40;93.90
38941;DHT22;43236;47.208;7.518;2023-08-12T13:45:22;28.40;94.60
38941;DHT22;43236;47.208;7.518;2023-08-12T13:48:09;28.80;94.40
38941;DHT22;43236;47.208;7.518;2023-08-12T13:50:56;28.30;93.50
38941;DHT22;43236;47.208;7.518;2023-08-12T13:53:43;28.40;93.90
38941;DHT22;43236;47.208;7.518;2023-08-12T13:56:30;27.40;93.20
38941;DHT22;43236;47.208;7.518;2023-08-12T13:59:18;27.70;93.70
38941;DHT22;43236;47.208;7.518;2023-08-12T14:02:05;28.10;93.80
38941;DHT22;43236;47.208;7.518;2023-08-12T14:04:52;28.30;93.60
38941;DHT22;43236;47.208;7.518;2023-08-12T14:07:39;28.40;93.60
38941;DHT22;43236;47.208;7.518;2023-08-12T14:10:26;28.80;93.30
38941;DHT22;43236;47.208;7.518;2023-08-12T14:13:13;28.70;93.30
38941;DHT22;43236;47.208;7.518;2023-08-12T14:16:01;30.50;93.80
38941;DHT22;43236;47.208;7.518;2023-08-12T14:18:48;28.60;92.30
38941;DHT22;43236;47.208;7.518;2023-08-12T14:21:35;28.90;92.60
38941;DHT22;43236;47.208;7.518;2023-08-12T14:24:22;28.90;92.50
38941;DHT22;43236;47.208;7.518;2023-08-12T14:27:09;28.80;92.10
38941;DHT22;43236;47.208;7.518;2023-08-12T14:29:56;29.00;92.20
38941;DHT22;43236;47.208;7.518;2023-08-12T14:32:44;28.70;92.10
38941;DHT22;43236;47.208;7.518;2023-08-12T14:35:33;28.10;90.70
38941;DHT22;43236;47.208;7.518;2023-08-12T14:38:20;29.00;91.20
38941;DHT22;43236;47.208;7.518;2023-08-12T14:41:07;29.10;91.20
38941;DHT22;43236;47.208;7.518;2023-08-12T14:43:53;28.70;90.60
38941;DHT22;43236;47.208;7.518;2023-08-12T14:46:40;28.90;90.70
38941;DHT22;43236;47.208;7.518;2023-08-12T14:49:29;28.80;90.40
38941;DHT22;43236;47.208;7.518;2023-08-12T14:52:16;28.50;90.60
38941;DHT22;43236;47.208;7.518;2023-08-12T14:55:04;28.90;90.30
38941;DHT22;43236;47.208;7.518;2023-08-12T14:57:51;28.30;90.40
38941;DHT22;43236;47.208;7.518;2023-08-12T15:00:38;28.90;90.80
38941;DHT22;43236;47.208;7.518;2023-08-12T15:03:25;28.80;91.20
38941;DHT22;43236;47.208;7.518;2023-08-12T15:06:13;28.90;91.00
38941;DHT22;43236;47.208;7.518;2023-08-12T15:09:00;27.40;91.10
38941;DHT22;43236;47.208;7.518;2023-08-12T15:11:47;28.50;91.40
38941;DHT22;43236;47.208;7.518;2023-08-12T15:14:34;28.80;91.10
38941;DHT22;43236;47.208;7.518;2023-08-12T15:17:21;29.50;91.20
38941;DHT22;43236;47.208;7.518;2023-08-12T15:20:08;27.90;91.00
38941;DHT22;43236;47.208;7.518;2023-08-12T15:22:57;29.10;91.60
38941;DHT22;43236;47.208;7.518;2023-08-12T15:25:44;30.10;91.00
38941;DHT22;43236;47.208;7.518;2023-08-12T15:28:31;29.20;90.60
38941;DHT22;43236;47.208;7.518;2023-08-12T15:31:18;29.40;90.10
38941;DHT22;43236;47.208;7.518;2023-08-12T15:34:05;29.30;90.10
38941;DHT22;43236;47.208;7.518;2023-08-12T15:36:52;28.70;90.80
38941;DHT22;43236;47.208;7.518;2023-08-12T15:39:40;29.90;90.00
38941;DHT22;43236;47.208;7.518;2023-08-12T15:42:27;29.10;90.00
38941;DHT22;43236;47.208;7.518;2023-08-12T15:45:13;29.20;89.60
38941;DHT22;43236;47.208;7.518;2023-08-12T15:48:00;30.90;90.20
38941;DHT22;43236;47.208;7.518;2023-08-12T15:50:47;30.10;90.20
38941;DHT22;43236;47.208;7.518;2023-08-12T15:53:34;29.30;88.70
38941;DHT22;43236;47.208;7.518;2023-08-12T15:56:22;29.30;88.10
38941;DHT22;43236;47.208;7.518;2023-08-12T15:59:09;29.10;88.50
38941;DHT22;43236;47.208;7.518;2023-08-12T16:01:56;29.40;88.50
38941;DHT22;43236;47.208;7.518;2023-08-12T16:04:43;27.80;87.40
38941;DHT22;43236;47.208;7.518;2023-08-12T16:07:30;29.80;89.70
38941;DHT22;43236;47.208;7.518;2023-08-12T16:10:17;29.00;89.50
38941;DHT22;43236;47.208;7.518;2023-08-12T16:13:06;29.10;90.00
38941;DHT22;43236;47.208;7.518;2023-08-12T16:15:52;28.80;89.00
38941;DHT22;43236;47.208;7.518;2023-08-12T16:18:39;29.20;90.00
38941;DHT22;43236;47.208;7.518;2023-08-12T16:21:26;29.30;89.30
38941;DHT22;43236;47.208;7.518;2023-08-12T16:24:13;29.30;89.90
38941;DHT22;43236;47.208;7.518;2023-08-12T16:27:00;29.20;88.70
38941;DHT22;43236;47.208;7.518;2023-08-12T16:29:50;29.20;86.80
38941;DHT22;43236;47.208;7.518;2023-08-12T16:32:36;28.30;86.10
38941;DHT22;43236;47.208;7.518;2023-08-12T16:35:23;29.10;88.10
38941;DHT22;43236;47.208;7.518;2023-08-12T16:38:10;29.60;87.90
38941;DHT22;43236;47.208;7.518;2023-08-12T16:40:57;29.40;86.90
38941;DHT22;43236;47.208;7.518;2023-08-12T16:43:44;29.60;87.50
38941;DHT22;43236;47.208;7.518;2023-08-12T16:46:32;30.00;87.20
38941;DHT22;43236;47.208;7.518;2023-08-12T16:49:19;29.90;87.30
38941;DHT22;43236;47.208;7.518;2023-08-12T16:52:06;28.50;85.70
38941;DHT22;43236;47.208;7.518;2023-08-12T16:54:53;29.40;85.70
38941;DHT22;43236;47.208;7.518;2023-08-12T16:57:40;29.50;85.70
38941;DHT22;43236;47.208;7.518;2023-08-12T17:00:27;28.10;85.80
38941;DHT22;43236;47.208;7.518;2023-08-12T17:03:15;29.40;86.00
38941;DHT22;43236;47.208;7.518;2023-08-12T17:06:02;29.90;87.30
38941;DHT22;43236;47.208;7.518;2023-08-12T17:08:49;29.90;86.20
38941;DHT22;43236;47.208;7.518;2023-08-12T17:11:36;29.60;86.10
38941;DHT22;43236;47.208;7.518;2023-08-12T17:14:22;28.30;84.50
38941;DHT22;43236;47.208;7.518;2023-08-12T17:17:09;29.60;85.70
38941;DHT22;43236;47.208;7.518;2023-08-12T17:19:58;30.80;84.60
38941;DHT22;43236;47.208;7.518;2023-08-12T17:22:44;29.80;83.70
38941;DHT22;43236;47.208;7.518;2023-08-12T17:25:31;30.00;83.90
38941;DHT22;43236;47.208;7.518;2023-08-12T17:28:18;30.90;82.90
38941;DHT22;43236;47.208;7.518;2023-08-12T17:31:05;32.90;80.90
38941;DHT22;43236;47.208;7.518;2023-08-12T17:33:52;33.00;75.10
38941;DHT22;43236;47.208;7.518;2023-08-12T17:36:40;35.40;77.20
38941;DHT22;43236;47.208;7.518;2023-08-12T17:39:27;32.20;75.90
38941;DHT22;43236;47.208;7.518;2023-08-12T17:42:14;30.90;77.50
38941;DHT22;43236;47.208;7.518;2023-08-12T17:45:01;30.70;79.00